createdAt,value
2017-11-14T00:00:16.961Z,0
2017-11-14T00:00:57.442Z,0
2017-11-14T00:01:38.013Z,0
2017-11-14T00:02:18.577Z,0
2017-11-14T00:02:59.106Z,0
2017-11-14T00:03:39.652Z,0
2017-11-14T00:04:20.233Z,0
2017-11-14T00:05:00.817Z,0
2017-11-14T00:05:41.328Z,0
2017-11-14T00:06:21.860Z,0
2017-11-14T00:07:02.502Z,0
2017-11-14T00:07:42.998Z,0
2017-11-14T00:08:23.547Z,0
2017-11-14T00:09:04.149Z,0
2017-11-14T00:09:44.602Z,0
2017-11-14T00:10:25.158Z,0
2017-11-14T00:11:05.764Z,0
2017-11-14T00:11:46.276Z,0
2017-11-14T00:12:26.839Z,0
2017-11-14T00:13:07.366Z,0
2017-11-14T00:13:48.020Z,0
2017-11-14T00:14:28.558Z,0
2017-11-14T00:15:09.093Z,0
2017-11-14T00:15:49.672Z,0
2017-11-14T00:16:30.177Z,0
2017-11-14T00:17:10.750Z,0
2017-11-14T00:17:51.260Z,0
2017-11-14T00:18:31.808Z,0
2017-11-14T00:19:12.371Z,0
2017-11-14T00:19:52.889Z,0
2017-11-14T00:20:33.437Z,0
2017-11-14T00:21:14.040Z,0
2017-11-14T00:21:54.567Z,0
2017-11-14T00:22:35.093Z,0
2017-11-14T00:23:15.599Z,0
2017-11-14T00:23:56.137Z,0
2017-11-14T00:24:36.676Z,0
2017-11-14T00:25:17.349Z,0
2017-11-14T00:25:57.838Z,0
2017-11-14T00:26:38.816Z,0
2017-11-14T00:27:19.388Z,0
2017-11-14T00:27:59.891Z,0
2017-11-14T00:28:40.435Z,0
2017-11-14T00:29:20.994Z,0
2017-11-14T00:30:01.571Z,0
2017-11-14T00:30:42.983Z,0
2017-11-14T00:31:23.477Z,0
2017-11-14T00:32:04.052Z,0
2017-11-14T00:32:44.580Z,0
2017-11-14T00:33:25.120Z,0
2017-11-14T00:34:05.687Z,0
2017-11-14T00:34:46.215Z,0
2017-11-14T00:35:26.779Z,0
2017-11-14T00:36:07.308Z,0
2017-11-14T00:36:47.801Z,0
2017-11-14T00:37:28.327Z,0
2017-11-14T00:38:08.853Z,0
2017-11-14T00:38:49.381Z,0
2017-11-14T00:39:29.925Z,0
2017-11-14T00:40:10.489Z,0
2017-11-14T00:40:51.021Z,0
2017-11-14T00:41:31.584Z,0
2017-11-14T00:42:12.117Z,0
2017-11-14T00:42:52.717Z,0
2017-11-14T00:43:33.285Z,0
2017-11-14T00:44:13.817Z,0
2017-11-14T00:44:54.396Z,0
2017-11-14T00:45:34.944Z,0
2017-11-14T00:46:15.495Z,0
2017-11-14T00:46:56.070Z,0
2017-11-14T00:47:36.625Z,0
2017-11-14T00:48:17.155Z,0
2017-11-14T00:48:57.725Z,0
2017-11-14T00:49:38.268Z,0
2017-11-14T00:50:18.814Z,0
2017-11-14T00:50:59.636Z,0
2017-11-14T00:51:40.079Z,0
2017-11-14T00:52:20.637Z,0
2017-11-14T00:53:01.160Z,0
2017-11-14T00:53:41.710Z,0
2017-11-14T00:54:22.261Z,0
2017-11-14T00:55:02.867Z,0
2017-11-14T00:55:43.445Z,0
2017-11-14T00:56:23.989Z,0
2017-11-14T00:57:04.572Z,0
2017-11-14T00:57:45.095Z,0
2017-11-14T00:58:25.608Z,0
2017-11-14T00:59:06.169Z,0
2017-11-14T00:59:46.709Z,0
2017-11-14T01:00:27.286Z,0
2017-11-14T01:01:07.814Z,0
2017-11-14T01:01:48.411Z,0
2017-11-14T01:02:28.926Z,0
2017-11-14T01:03:09.440Z,0
2017-11-14T01:03:50.003Z,0
2017-11-14T01:04:30.512Z,0
2017-11-14T01:05:11.073Z,0
2017-11-14T01:05:51.571Z,0
2017-11-14T01:06:32.108Z,0
2017-11-14T01:07:12.715Z,0
2017-11-14T01:07:53.245Z,0
2017-11-14T01:08:33.782Z,0
2017-11-14T01:09:14.318Z,0
2017-11-14T01:09:54.867Z,0
2017-11-14T01:10:35.408Z,0
2017-11-14T01:11:15.936Z,0
2017-11-14T01:11:56.463Z,0
2017-11-14T01:12:37.014Z,0
2017-11-14T01:13:17.559Z,0
2017-11-14T01:13:58.099Z,0
2017-11-14T01:14:38.634Z,0
2017-11-14T01:15:19.193Z,0
2017-11-14T01:15:59.779Z,0
2017-11-14T01:16:40.341Z,0
2017-11-14T01:17:20.920Z,0
2017-11-14T01:18:01.490Z,0
2017-11-14T01:18:42.031Z,0
2017-11-14T01:19:22.579Z,0
2017-11-14T01:20:03.128Z,0
2017-11-14T01:20:43.680Z,0
2017-11-14T01:21:24.203Z,0
2017-11-14T01:22:04.723Z,0
2017-11-14T01:22:45.268Z,0
2017-11-14T01:23:25.804Z,0
2017-11-14T01:24:06.376Z,0
2017-11-14T01:24:46.924Z,0
2017-11-14T01:25:27.456Z,0
2017-11-14T01:26:08.033Z,0
2017-11-14T01:26:48.581Z,0
2017-11-14T01:27:29.134Z,0
2017-11-14T01:28:09.664Z,0
2017-11-14T01:28:50.229Z,0
2017-11-14T01:29:30.752Z,0
2017-11-14T01:30:11.311Z,0
2017-11-14T01:30:51.842Z,0
2017-11-14T01:31:32.381Z,0
2017-11-14T01:32:12.943Z,0
2017-11-14T01:32:53.440Z,0
2017-11-14T01:33:34.019Z,0
2017-11-14T01:34:14.511Z,0
2017-11-14T01:34:55.059Z,0
2017-11-14T01:35:35.590Z,0
2017-11-14T01:36:16.154Z,0
2017-11-14T01:36:56.712Z,0
2017-11-14T01:37:37.237Z,0
2017-11-14T01:38:17.772Z,0
2017-11-14T01:38:58.294Z,0
2017-11-14T01:39:38.828Z,0
2017-11-14T01:40:19.368Z,0
2017-11-14T01:40:59.911Z,0
2017-11-14T01:41:40.455Z,0
2017-11-14T01:42:21.037Z,0
2017-11-14T01:43:01.596Z,0
2017-11-14T01:43:42.104Z,0
2017-11-14T01:44:22.660Z,0
2017-11-14T01:45:03.211Z,0
2017-11-14T01:45:43.773Z,0
2017-11-14T01:46:24.323Z,0
2017-11-14T01:47:04.879Z,0
2017-11-14T01:47:45.420Z,0
2017-11-14T01:48:25.990Z,0
2017-11-14T01:49:06.541Z,0
2017-11-14T01:49:47.110Z,0
2017-11-14T01:50:27.647Z,0
2017-11-14T01:51:08.198Z,0
2017-11-14T01:51:48.749Z,0
2017-11-14T01:52:29.285Z,0
2017-11-14T01:53:09.844Z,0
2017-11-14T01:53:50.360Z,0
2017-11-14T01:54:30.915Z,0
2017-11-14T01:55:11.439Z,0
2017-11-14T01:55:51.984Z,0
2017-11-14T01:56:32.529Z,0
2017-11-14T01:57:13.052Z,0
2017-11-14T01:57:53.606Z,0
2017-11-14T01:58:34.156Z,0
2017-11-14T01:59:14.686Z,0
2017-11-14T01:59:55.214Z,0
2017-11-14T02:00:35.770Z,0
2017-11-14T02:01:16.316Z,0
2017-11-14T02:01:56.880Z,0
2017-11-14T02:02:37.440Z,0
2017-11-14T02:03:17.963Z,0
2017-11-14T02:03:58.507Z,0
2017-11-14T02:04:39.113Z,0
2017-11-14T02:05:19.651Z,0
2017-11-14T02:06:00.205Z,0
2017-11-14T02:06:40.717Z,0
2017-11-14T02:07:21.275Z,0
2017-11-14T02:08:01.823Z,0
2017-11-14T02:08:42.352Z,0
2017-11-14T02:09:22.900Z,0
2017-11-14T02:10:03.448Z,0
2017-11-14T02:10:43.980Z,0
2017-11-14T02:11:24.532Z,0
2017-11-14T02:12:05.091Z,0
2017-11-14T02:12:45.616Z,0
2017-11-14T02:13:26.184Z,0
2017-11-14T02:14:06.758Z,0
2017-11-14T02:14:47.313Z,0
2017-11-14T02:15:27.880Z,0
2017-11-14T02:16:08.541Z,0
2017-11-14T02:16:49.011Z,0
2017-11-14T02:17:29.521Z,0
2017-11-14T02:18:10.073Z,0
2017-11-14T02:18:50.619Z,0
2017-11-14T02:19:31.154Z,0
2017-11-14T02:20:11.706Z,0
2017-11-14T02:20:52.250Z,0
2017-11-14T02:21:32.807Z,0
2017-11-14T02:22:13.354Z,0
2017-11-14T02:22:53.903Z,0
2017-11-14T02:23:34.439Z,0
2017-11-14T02:24:14.993Z,0
2017-11-14T02:24:55.563Z,0
2017-11-14T02:25:36.083Z,0
2017-11-14T02:26:16.612Z,0
2017-11-14T02:26:57.178Z,0
2017-11-14T02:27:37.732Z,0
2017-11-14T02:28:18.326Z,0
2017-11-14T02:28:58.850Z,0
2017-11-14T02:29:39.403Z,0
2017-11-14T02:30:19.968Z,0
2017-11-14T02:31:00.541Z,0
2017-11-14T02:31:41.066Z,0
2017-11-14T02:32:21.611Z,0
2017-11-14T02:33:02.175Z,0
2017-11-14T02:33:42.744Z,0
2017-11-14T02:34:23.405Z,0
2017-11-14T02:35:03.901Z,0
2017-11-14T02:35:44.454Z,0
2017-11-14T02:36:24.950Z,0
2017-11-14T02:37:05.508Z,0
2017-11-14T02:37:46.068Z,0
2017-11-14T02:38:26.568Z,0
2017-11-14T02:39:07.154Z,0
2017-11-14T02:39:47.663Z,0
2017-11-14T02:40:28.286Z,0
2017-11-14T02:41:08.879Z,0
2017-11-14T02:41:49.415Z,0
2017-11-14T02:42:29.947Z,0
2017-11-14T02:43:10.490Z,0
2017-11-14T02:43:51.046Z,0
2017-11-14T02:44:31.560Z,0
2017-11-14T02:45:12.096Z,0
2017-11-14T02:45:52.660Z,0
2017-11-14T02:46:33.207Z,0
2017-11-14T02:47:13.728Z,0
2017-11-14T02:47:54.272Z,0
2017-11-14T02:48:34.811Z,0
2017-11-14T02:49:15.361Z,0
2017-11-14T02:49:55.889Z,0
2017-11-14T02:50:36.416Z,0
2017-11-14T02:51:16.997Z,0
2017-11-14T02:51:57.551Z,0
2017-11-14T02:52:38.078Z,0
2017-11-14T02:53:18.647Z,0
2017-11-14T02:53:59.205Z,0
2017-11-14T02:54:39.726Z,0
2017-11-14T02:55:20.308Z,0
2017-11-14T02:56:00.885Z,0
2017-11-14T02:56:41.418Z,0
2017-11-14T02:57:21.967Z,0
2017-11-14T02:58:02.531Z,0
2017-11-14T02:58:43.084Z,0
2017-11-14T02:59:23.654Z,0
2017-11-14T03:00:04.246Z,0
2017-11-14T03:00:44.788Z,0
2017-11-14T03:01:25.286Z,0
2017-11-14T03:02:05.833Z,0
2017-11-14T03:02:46.396Z,0
2017-11-14T03:03:26.926Z,0
2017-11-14T03:04:07.491Z,0
2017-11-14T03:04:48.037Z,0
2017-11-14T03:05:28.575Z,0
2017-11-14T03:06:09.158Z,0
2017-11-14T03:06:49.679Z,0
2017-11-14T03:07:30.300Z,0
2017-11-14T03:08:10.842Z,0
2017-11-14T03:08:51.365Z,0
2017-11-14T03:09:31.913Z,0
2017-11-14T03:10:12.453Z,0
2017-11-14T03:10:53.012Z,0
2017-11-14T03:11:33.548Z,0
2017-11-14T03:12:14.115Z,0
2017-11-14T03:12:54.739Z,0
2017-11-14T03:13:35.287Z,0
2017-11-14T03:14:15.796Z,0
2017-11-14T03:14:56.351Z,0
2017-11-14T03:15:36.918Z,0
2017-11-14T03:16:17.431Z,0
2017-11-14T03:16:57.999Z,0
2017-11-14T03:17:38.525Z,0
2017-11-14T03:18:19.065Z,0
2017-11-14T03:18:59.630Z,0
2017-11-14T03:19:40.203Z,0
2017-11-14T03:20:20.719Z,0
2017-11-14T03:21:01.267Z,0
2017-11-14T03:21:41.812Z,0
2017-11-14T03:22:22.373Z,0
2017-11-14T03:23:02.923Z,0
2017-11-14T03:23:43.464Z,0
2017-11-14T03:24:24.007Z,0
2017-11-14T03:25:04.599Z,0
2017-11-14T03:25:45.163Z,0
2017-11-14T03:26:25.724Z,0
2017-11-14T03:27:06.272Z,0
2017-11-14T03:27:46.801Z,0
2017-11-14T03:28:27.361Z,0
2017-11-14T03:29:08.535Z,0
2017-11-14T03:29:48.408Z,0
2017-11-14T03:30:28.953Z,0
2017-11-14T03:31:09.547Z,0
2017-11-14T03:31:50.070Z,0
2017-11-14T03:32:30.641Z,0
2017-11-14T03:33:11.184Z,0
2017-11-14T03:33:51.710Z,0
2017-11-14T03:34:32.261Z,0
2017-11-14T03:35:12.784Z,0
2017-11-14T03:35:53.382Z,0
2017-11-14T03:36:33.916Z,0
2017-11-14T03:37:14.470Z,0
2017-11-14T03:37:55.044Z,0
2017-11-14T03:38:35.569Z,0
2017-11-14T03:39:16.075Z,0
2017-11-14T03:39:56.615Z,0
2017-11-14T03:40:37.131Z,0
2017-11-14T03:41:17.682Z,0
2017-11-14T03:41:58.256Z,0
2017-11-14T03:42:38.774Z,0
2017-11-14T03:43:19.307Z,0
2017-11-14T03:43:59.887Z,0
2017-11-14T03:44:40.632Z,0
2017-11-14T03:45:21.222Z,0
2017-11-14T03:46:01.754Z,0
2017-11-14T03:46:42.302Z,0
2017-11-14T03:47:22.856Z,0
2017-11-14T03:48:03.389Z,0
2017-11-14T03:48:43.945Z,0
2017-11-14T03:49:24.473Z,0
2017-11-14T03:50:05.007Z,0
2017-11-14T03:50:45.553Z,0
2017-11-14T03:51:26.080Z,0
2017-11-14T03:52:06.652Z,0
2017-11-14T03:52:47.185Z,0
2017-11-14T03:53:27.734Z,0
2017-11-14T03:54:10.109Z,0
2017-11-14T03:54:50.668Z,0
2017-11-14T03:55:31.198Z,0
2017-11-14T03:56:11.763Z,0
2017-11-14T03:56:52.286Z,0
2017-11-14T03:57:32.842Z,0
2017-11-14T03:58:16.227Z,0
2017-11-14T03:58:56.791Z,0
2017-11-14T03:59:37.326Z,0
2017-11-14T04:00:17.881Z,0
2017-11-14T04:00:58.430Z,0
2017-11-14T04:01:38.988Z,0
2017-11-14T04:02:19.548Z,0
2017-11-14T04:03:00.096Z,0
2017-11-14T04:03:40.627Z,0
2017-11-14T04:04:21.189Z,0
2017-11-14T04:05:01.725Z,0
2017-11-14T04:05:42.279Z,0
2017-11-14T04:06:22.820Z,0
2017-11-14T04:07:03.364Z,0
2017-11-14T04:07:43.880Z,0
2017-11-14T04:08:24.429Z,0
2017-11-14T04:09:05.003Z,0
2017-11-14T04:09:45.529Z,0
2017-11-14T04:10:26.075Z,0
2017-11-14T04:11:06.654Z,0
2017-11-14T04:11:47.183Z,0
2017-11-14T04:12:27.713Z,0
2017-11-14T04:13:08.288Z,0
2017-11-14T04:13:48.812Z,0
2017-11-14T04:14:29.371Z,0
2017-11-14T04:15:09.942Z,0
2017-11-14T04:15:50.518Z,0
2017-11-14T04:16:31.051Z,0
2017-11-14T04:17:11.592Z,0
2017-11-14T04:17:52.142Z,0
2017-11-14T04:18:32.678Z,0
2017-11-14T04:19:13.223Z,0
2017-11-14T04:19:53.794Z,0
2017-11-14T04:20:34.332Z,0
2017-11-14T04:21:14.860Z,0
2017-11-14T04:21:55.443Z,0
2017-11-14T04:22:36.010Z,0
2017-11-14T04:23:16.554Z,0
2017-11-14T04:23:57.126Z,0
2017-11-14T04:24:37.711Z,0
2017-11-14T04:25:18.265Z,0
2017-11-14T04:25:58.790Z,0
2017-11-14T04:26:39.338Z,0
2017-11-14T04:27:19.890Z,0
2017-11-14T04:28:00.463Z,0
2017-11-14T04:28:40.984Z,0
2017-11-14T04:29:21.535Z,0
2017-11-14T04:30:02.083Z,0
2017-11-14T04:30:42.642Z,0
2017-11-14T04:31:23.218Z,0
2017-11-14T04:32:03.757Z,0
2017-11-14T04:32:44.310Z,0
2017-11-14T04:33:25.015Z,0
2017-11-14T04:34:05.499Z,0
2017-11-14T04:34:46.037Z,0
2017-11-14T04:35:26.597Z,0
2017-11-14T04:36:07.159Z,0
2017-11-14T04:36:47.709Z,0
2017-11-14T04:37:28.252Z,0
2017-11-14T04:38:08.794Z,0
2017-11-14T04:38:49.332Z,0
2017-11-14T04:39:29.912Z,0
2017-11-14T04:40:10.468Z,0
2017-11-14T04:40:51.011Z,0
2017-11-14T04:41:32.991Z,0
2017-11-14T04:42:13.083Z,0
2017-11-14T04:42:53.576Z,0
2017-11-14T04:43:34.136Z,0
2017-11-14T04:44:14.693Z,0
2017-11-14T04:44:55.241Z,0
2017-11-14T04:45:35.807Z,0
2017-11-14T04:46:16.371Z,0
2017-11-14T04:46:56.884Z,0
2017-11-14T04:47:37.448Z,0
2017-11-14T04:48:17.995Z,0
2017-11-14T04:48:58.537Z,0
2017-11-14T04:49:39.245Z,0
2017-11-14T04:50:19.917Z,0
2017-11-14T04:51:00.459Z,0
2017-11-14T04:51:41.008Z,0
2017-11-14T04:52:21.552Z,0
2017-11-14T04:53:02.091Z,0
2017-11-14T04:53:42.683Z,0
2017-11-14T04:54:23.221Z,0
2017-11-14T04:55:03.841Z,0
2017-11-14T04:55:44.369Z,0
2017-11-14T04:56:24.925Z,0
2017-11-14T04:57:05.461Z,0
2017-11-14T04:57:46.030Z,0
2017-11-14T04:58:26.573Z,0
2017-11-14T04:59:07.106Z,0
2017-11-14T04:59:47.632Z,0
2017-11-14T05:00:28.184Z,0
2017-11-14T05:01:08.746Z,0
2017-11-14T05:01:49.283Z,0
2017-11-14T05:02:29.809Z,0
2017-11-14T05:03:10.375Z,0
2017-11-14T05:03:50.907Z,0
2017-11-14T05:04:31.462Z,0
2017-11-14T05:05:12.001Z,0
2017-11-14T05:05:52.550Z,0
2017-11-14T05:06:33.095Z,0
2017-11-14T05:07:13.650Z,0
2017-11-14T05:07:54.189Z,0
2017-11-14T05:08:34.725Z,0
2017-11-14T05:09:15.251Z,0
2017-11-14T05:09:55.840Z,0
2017-11-14T05:10:36.349Z,0
2017-11-14T05:11:16.892Z,0
2017-11-14T05:11:57.419Z,0
2017-11-14T05:12:37.950Z,0
2017-11-14T05:13:18.475Z,0
2017-11-14T05:13:58.996Z,0
2017-11-14T05:14:39.506Z,0
2017-11-14T05:16:52.335Z,0
2017-11-14T05:17:32.889Z,0
2017-11-14T05:18:13.441Z,0
2017-11-14T05:18:54.007Z,0
2017-11-14T05:19:34.559Z,0
2017-11-14T05:20:15.119Z,0
2017-11-14T05:20:55.665Z,0
2017-11-14T05:21:36.359Z,0
2017-11-14T05:22:16.860Z,0
2017-11-14T05:22:57.402Z,0
2017-11-14T05:23:37.967Z,0
2017-11-14T05:24:18.514Z,0
2017-11-14T05:24:59.085Z,0
2017-11-14T05:25:39.645Z,0
2017-11-14T05:26:20.221Z,0
2017-11-14T05:27:00.765Z,0
2017-11-14T05:27:41.360Z,0
2017-11-14T05:28:21.860Z,0
2017-11-14T05:29:02.483Z,0
2017-11-14T05:29:43.024Z,0
2017-11-14T05:30:23.573Z,0
2017-11-14T05:31:04.170Z,0
2017-11-14T05:31:44.724Z,0
2017-11-14T05:32:25.251Z,0
2017-11-14T05:33:05.877Z,0
2017-11-14T05:33:46.432Z,0
2017-11-14T05:34:26.997Z,0
2017-11-14T05:35:07.549Z,0
2017-11-14T05:35:48.516Z,0
2017-11-14T05:36:28.670Z,0
2017-11-14T05:37:09.229Z,0
2017-11-14T05:37:49.774Z,0
2017-11-14T05:38:30.307Z,0
2017-11-14T05:39:10.879Z,0
2017-11-14T05:39:51.724Z,0
2017-11-14T05:40:32.287Z,0
2017-11-14T05:41:12.918Z,0
2017-11-14T05:41:53.494Z,0
2017-11-14T05:42:33.955Z,0
2017-11-14T05:43:14.442Z,0
2017-11-14T05:43:54.918Z,0
2017-11-14T05:44:35.623Z,0
2017-11-14T05:45:16.133Z,0
2017-11-14T05:45:56.717Z,0
2017-11-14T05:46:37.250Z,0
2017-11-14T05:47:17.801Z,0
2017-11-14T05:47:58.363Z,0
2017-11-14T05:48:38.934Z,0
2017-11-14T05:49:19.433Z,0
2017-11-14T05:49:59.963Z,0
2017-11-14T05:50:40.504Z,0
2017-11-14T05:51:21.260Z,0
2017-11-14T05:52:01.785Z,0
2017-11-14T05:52:42.547Z,0
2017-11-14T05:53:22.996Z,0
2017-11-14T05:54:03.518Z,0
2017-11-14T05:54:44.068Z,0
2017-11-14T05:55:24.626Z,0
2017-11-14T05:56:05.679Z,0
2017-11-14T05:56:46.267Z,0
2017-11-14T05:57:26.765Z,0
2017-11-14T05:58:07.335Z,0
2017-11-14T05:58:47.885Z,0
2017-11-14T05:59:28.415Z,0
2017-11-14T06:00:08.954Z,0
2017-11-14T06:00:49.503Z,0
2017-11-14T06:01:30.120Z,0
2017-11-14T06:02:10.627Z,0
2017-11-14T06:02:51.184Z,0
2017-11-14T06:03:31.720Z,0
2017-11-14T06:04:12.276Z,0
2017-11-14T06:04:52.812Z,0
2017-11-14T06:05:33.392Z,0
2017-11-14T06:06:13.966Z,0
2017-11-14T06:06:54.489Z,0
2017-11-14T06:07:35.033Z,0
2017-11-14T06:08:15.614Z,0
2017-11-14T06:08:56.154Z,0
2017-11-14T06:09:36.794Z,0
2017-11-14T06:10:17.331Z,0
2017-11-14T06:10:57.968Z,0
2017-11-14T06:11:38.449Z,0
2017-11-14T06:12:19.014Z,0
2017-11-14T06:12:59.572Z,0
2017-11-14T06:13:40.173Z,0
2017-11-14T06:14:20.752Z,0
2017-11-14T06:15:01.313Z,0
2017-11-14T06:15:41.886Z,0
2017-11-14T06:16:22.443Z,0
2017-11-14T06:17:02.993Z,0
2017-11-14T06:17:43.546Z,0
2017-11-14T06:18:24.105Z,0
2017-11-14T06:19:04.646Z,0
2017-11-14T06:19:45.216Z,0
2017-11-14T06:20:25.847Z,0
2017-11-14T06:21:06.265Z,0
2017-11-14T06:21:46.874Z,0
2017-11-14T06:22:27.408Z,0
2017-11-14T06:23:07.970Z,0
2017-11-14T06:23:48.466Z,0
2017-11-14T06:24:29.198Z,0
2017-11-14T06:25:09.571Z,0
2017-11-14T06:25:50.168Z,0
2017-11-14T06:26:30.666Z,0
2017-11-14T06:27:11.213Z,0
2017-11-14T06:27:51.742Z,0
2017-11-14T06:28:32.328Z,0
2017-11-14T06:29:12.886Z,0
2017-11-14T06:29:53.563Z,0
2017-11-14T06:30:34.145Z,0
2017-11-14T06:31:14.699Z,0
2017-11-14T06:31:55.294Z,0
2017-11-14T06:32:36.242Z,0
2017-11-14T06:33:16.823Z,0
2017-11-14T06:33:57.388Z,0
2017-11-14T06:34:38.041Z,0
2017-11-14T06:35:18.643Z,0
2017-11-14T06:35:59.151Z,0
2017-11-14T06:36:39.734Z,0
2017-11-14T06:37:20.302Z,0
2017-11-14T06:38:00.983Z,0
2017-11-14T06:38:41.777Z,0
2017-11-14T06:39:22.294Z,0
2017-11-14T06:40:03.314Z,0
2017-11-14T06:40:43.864Z,0
2017-11-14T06:41:24.402Z,0
2017-11-14T06:42:04.955Z,0
2017-11-14T06:42:45.541Z,0
2017-11-14T06:43:26.115Z,0
2017-11-14T06:44:06.647Z,0
2017-11-14T06:44:47.192Z,5
2017-11-14T06:45:27.729Z,5
2017-11-14T06:46:08.271Z,5
2017-11-14T06:46:49.839Z,5
2017-11-14T06:47:30.359Z,5
2017-11-14T06:48:10.952Z,5
2017-11-14T06:48:51.517Z,5
2017-11-14T06:49:32.076Z,5
2017-11-14T06:50:12.623Z,5
2017-11-14T06:50:53.175Z,5
2017-11-14T06:51:33.739Z,5
2017-11-14T06:52:14.275Z,5
2017-11-14T06:52:54.810Z,5
2017-11-14T06:53:35.457Z,5
2017-11-14T06:54:16.026Z,5
2017-11-14T06:54:56.547Z,10
2017-11-14T06:55:37.099Z,10
2017-11-14T06:56:17.666Z,10
2017-11-14T06:56:58.147Z,10
2017-11-14T06:57:38.692Z,10
2017-11-14T06:58:19.246Z,10
2017-11-14T06:58:59.803Z,10
2017-11-14T06:59:40.416Z,10
2017-11-14T07:00:20.907Z,15
2017-11-14T07:01:01.460Z,15
2017-11-14T07:01:42.026Z,15
2017-11-14T07:02:22.531Z,15
2017-11-14T07:03:03.170Z,15
2017-11-14T07:03:43.802Z,15
2017-11-14T07:04:24.283Z,15
2017-11-14T07:05:05.011Z,15
2017-11-14T07:05:45.507Z,20
2017-11-14T07:06:26.067Z,20
2017-11-14T07:07:06.584Z,20
2017-11-14T07:07:47.191Z,20
2017-11-14T07:08:27.699Z,20
2017-11-14T07:09:08.229Z,20
2017-11-14T07:09:48.762Z,20
2017-11-14T07:10:29.386Z,20
2017-11-14T07:11:09.928Z,20
2017-11-14T07:11:50.776Z,25
2017-11-14T07:12:31.332Z,25
2017-11-14T07:13:11.865Z,25
2017-11-14T07:13:52.342Z,25
2017-11-14T07:14:32.911Z,25
2017-11-14T07:15:13.432Z,25
2017-11-14T07:15:53.978Z,30
2017-11-14T07:16:34.504Z,30
2017-11-14T07:17:15.009Z,30
2017-11-14T07:17:55.576Z,30
2017-11-14T07:18:36.072Z,30
2017-11-14T07:19:16.623Z,30
2017-11-14T07:19:57.193Z,30
2017-11-14T07:20:37.756Z,30
2017-11-14T07:21:18.267Z,30
2017-11-14T07:21:59.282Z,30
2017-11-14T07:22:39.888Z,35
2017-11-14T07:23:20.477Z,30
2017-11-14T07:24:01.010Z,35
2017-11-14T07:24:41.540Z,35
2017-11-14T07:25:22.101Z,35
2017-11-14T07:26:02.585Z,35
2017-11-14T07:26:43.305Z,35
2017-11-14T07:27:23.834Z,35
2017-11-14T07:28:04.429Z,35
2017-11-14T07:28:44.976Z,40
2017-11-14T07:29:25.698Z,40
2017-11-14T07:30:06.282Z,40
2017-11-14T07:30:46.733Z,40
2017-11-14T07:31:27.274Z,40
2017-11-14T07:32:07.876Z,40
2017-11-14T07:32:48.420Z,45
2017-11-14T07:33:28.898Z,45
2017-11-14T07:34:09.483Z,45
2017-11-14T07:34:50.115Z,45
2017-11-14T07:35:30.672Z,45
2017-11-14T07:36:11.194Z,50
2017-11-14T07:36:51.856Z,50
2017-11-14T07:37:32.446Z,50
2017-11-14T07:38:13.035Z,50
2017-11-14T07:38:53.561Z,50
2017-11-14T07:39:34.061Z,50
2017-11-14T07:40:14.637Z,55
2017-11-14T07:40:55.159Z,55
2017-11-14T07:41:35.728Z,55
2017-11-14T07:42:16.235Z,55
2017-11-14T07:42:56.869Z,50
2017-11-14T07:43:37.459Z,50
2017-11-14T07:44:18.034Z,55
2017-11-14T07:44:58.583Z,55
2017-11-14T07:45:39.100Z,55
2017-11-14T07:46:19.616Z,55
2017-11-14T07:47:00.199Z,55
2017-11-14T07:47:40.735Z,60
2017-11-14T07:48:21.267Z,60
2017-11-14T07:49:01.979Z,60
2017-11-14T07:49:42.524Z,60
2017-11-14T07:50:23.260Z,55
2017-11-14T07:51:03.971Z,55
2017-11-14T07:51:44.506Z,60
2017-11-14T07:52:25.018Z,60
2017-11-14T07:53:05.800Z,60
2017-11-14T07:53:46.648Z,65
2017-11-14T07:54:27.499Z,60
2017-11-14T07:55:08.043Z,60
2017-11-14T07:55:48.583Z,60
2017-11-14T07:56:29.118Z,55
2017-11-14T07:57:09.633Z,55
2017-11-14T07:57:50.167Z,60
2017-11-14T07:58:30.830Z,60
2017-11-14T07:59:11.409Z,60
2017-11-14T07:59:52.032Z,65
2017-11-14T08:00:32.596Z,65
2017-11-14T08:01:13.106Z,65
2017-11-14T08:01:53.674Z,60
2017-11-14T08:02:34.287Z,60
2017-11-14T08:03:14.829Z,60
2017-11-14T08:03:55.645Z,60
2017-11-14T08:04:36.271Z,60
2017-11-14T08:05:16.737Z,60
2017-11-14T08:05:57.377Z,60
2017-11-14T08:06:38.070Z,60
2017-11-14T08:07:18.622Z,60
2017-11-14T08:07:59.138Z,55
2017-11-14T08:08:39.714Z,55
2017-11-14T08:09:20.249Z,60
2017-11-14T08:10:00.827Z,60
2017-11-14T08:10:41.422Z,60
2017-11-14T08:11:21.963Z,60
2017-11-14T08:12:02.526Z,60
2017-11-14T08:12:43.037Z,60
2017-11-14T08:13:23.570Z,60
2017-11-14T08:14:04.135Z,60
2017-11-14T08:14:44.667Z,60
2017-11-14T08:15:25.198Z,60
2017-11-14T08:16:05.780Z,60
2017-11-14T08:16:46.326Z,65
2017-11-14T08:17:26.838Z,65
2017-11-14T08:18:07.344Z,70
2017-11-14T08:18:47.937Z,70
2017-11-14T08:19:28.682Z,75
2017-11-14T08:20:09.287Z,70
2017-11-14T08:20:49.846Z,70
2017-11-14T08:21:30.378Z,70
2017-11-14T08:22:10.903Z,65
2017-11-14T08:22:51.455Z,65
2017-11-14T08:23:32.056Z,65
2017-11-14T08:24:12.614Z,65
2017-11-14T08:24:53.154Z,65
2017-11-14T08:25:33.746Z,65
2017-11-14T08:26:14.244Z,70
2017-11-14T08:26:54.811Z,70
2017-11-14T08:27:35.321Z,70
2017-11-14T08:28:15.823Z,70
2017-11-14T08:28:56.412Z,70
2017-11-14T08:29:36.943Z,70
2017-11-14T08:30:17.470Z,70
2017-11-14T08:30:58.033Z,70
2017-11-14T08:31:38.631Z,70
2017-11-14T08:32:19.110Z,70
2017-11-14T08:32:59.670Z,70
2017-11-14T08:33:40.196Z,65
2017-11-14T08:34:20.729Z,65
2017-11-14T08:35:01.322Z,65
2017-11-14T08:35:41.833Z,65
2017-11-14T08:36:22.329Z,65
2017-11-14T08:37:02.897Z,65
2017-11-14T08:37:43.488Z,65
2017-11-14T08:38:24.107Z,65
2017-11-14T08:39:04.615Z,65
2017-11-14T08:39:45.159Z,65
2017-11-14T08:40:25.710Z,65
2017-11-14T08:41:06.366Z,65
2017-11-14T08:41:46.908Z,65
2017-11-14T08:42:27.533Z,65
2017-11-14T08:43:08.044Z,70
2017-11-14T08:43:48.552Z,70
2017-11-14T08:44:29.133Z,70
2017-11-14T08:45:09.759Z,75
2017-11-14T08:45:50.420Z,75
2017-11-14T08:46:30.887Z,75
2017-11-14T08:47:11.415Z,80
2017-11-14T08:47:52.012Z,80
2017-11-14T08:48:32.558Z,80
2017-11-14T08:49:13.094Z,80
2017-11-14T08:49:53.645Z,80
2017-11-14T08:50:34.182Z,75
2017-11-14T08:51:14.681Z,75
2017-11-14T08:51:55.245Z,85
2017-11-14T08:52:35.783Z,85
2017-11-14T08:53:16.340Z,90
2017-11-14T08:53:56.867Z,90
2017-11-14T08:54:37.487Z,85
2017-11-14T08:55:18.031Z,85
2017-11-14T08:55:58.618Z,85
2017-11-14T08:56:39.158Z,95
2017-11-14T08:57:19.705Z,100
2017-11-14T08:58:00.281Z,100
2017-11-14T08:58:40.815Z,100
2017-11-14T08:59:21.395Z,100
2017-11-14T09:00:01.947Z,105
2017-11-14T09:00:42.456Z,90
2017-11-14T09:01:23.010Z,85
2017-11-14T09:02:03.547Z,85
2017-11-14T09:02:44.058Z,85
2017-11-14T09:03:24.619Z,80
2017-11-14T09:04:05.113Z,80
2017-11-14T09:04:45.680Z,80
2017-11-14T09:05:26.223Z,80
2017-11-14T09:06:06.779Z,85
2017-11-14T09:06:47.331Z,85
2017-11-14T09:07:27.881Z,85
2017-11-14T09:08:08.429Z,90
2017-11-14T09:08:48.980Z,90
2017-11-14T09:09:29.745Z,95
2017-11-14T09:10:10.081Z,90
2017-11-14T09:10:50.692Z,90
2017-11-14T09:11:31.234Z,80
2017-11-14T09:12:11.784Z,80
2017-11-14T09:12:52.333Z,85
2017-11-14T09:13:32.835Z,90
2017-11-14T09:14:13.379Z,100
2017-11-14T09:14:53.937Z,105
2017-11-14T09:15:34.486Z,105
2017-11-14T09:16:15.045Z,105
2017-11-14T09:16:55.598Z,105
2017-11-14T09:17:36.173Z,105
2017-11-14T09:18:16.763Z,105
2017-11-14T09:18:57.294Z,105
2017-11-14T09:19:37.896Z,105
2017-11-14T09:20:18.391Z,100
2017-11-14T09:20:58.934Z,100
2017-11-14T09:21:39.523Z,95
2017-11-14T09:22:20.000Z,100
2017-11-14T09:23:00.573Z,100
2017-11-14T09:23:41.096Z,100
2017-11-14T09:24:21.624Z,105
2017-11-14T09:25:02.235Z,105
2017-11-14T09:25:42.685Z,105
2017-11-14T09:26:23.182Z,105
2017-11-14T09:27:03.742Z,100
2017-11-14T09:27:44.286Z,100
2017-11-14T09:28:24.826Z,100
2017-11-14T09:29:05.358Z,100
2017-11-14T09:29:45.896Z,100
2017-11-14T09:30:26.488Z,100
2017-11-14T09:31:07.042Z,100
2017-11-14T09:31:47.553Z,105
2017-11-14T09:32:28.133Z,105
2017-11-14T09:33:08.612Z,105
2017-11-14T09:33:49.877Z,105
2017-11-14T09:34:30.436Z,100
2017-11-14T09:35:11.016Z,100
2017-11-14T09:35:51.551Z,100
2017-11-14T09:36:32.120Z,95
2017-11-14T09:37:12.631Z,90
2017-11-14T09:37:53.271Z,90
2017-11-14T09:38:33.822Z,85
2017-11-14T09:39:14.387Z,85
2017-11-14T09:39:54.909Z,85
2017-11-14T09:40:35.434Z,85
2017-11-14T09:41:16.025Z,85
2017-11-14T09:41:56.541Z,85
2017-11-14T09:42:37.150Z,85
2017-11-14T09:43:17.649Z,85
2017-11-14T09:43:58.197Z,85
2017-11-14T09:44:38.774Z,85
2017-11-14T09:45:19.295Z,90
2017-11-14T09:45:59.883Z,90
2017-11-14T09:46:40.442Z,95
2017-11-14T09:47:20.949Z,100
2017-11-14T09:48:01.501Z,100
2017-11-14T09:48:42.200Z,105
2017-11-14T09:49:22.789Z,105
2017-11-14T09:50:03.326Z,105
2017-11-14T09:50:43.867Z,105
2017-11-14T09:51:24.395Z,100
2017-11-14T09:52:04.960Z,95
2017-11-14T09:52:45.464Z,100
2017-11-14T09:53:26.020Z,105